sensor_id;sensor_type;location;lat;lon;timestamp;P1;durP1;ratioP1;P2;durP2;ratioP2
44197;SDS011;30157;55.512;37.764;2022-09-12T00:03:34;10.43;;;6.03;;
44197;SDS011;30157;55.512;37.764;2022-09-12T00:06:00;9.38;;;6.25;;
44197;SDS011;30157;55.512;37.764;2022-09-12T00:08:32;10.05;;;5.82;;
44197;SDS011;30157;55.512;37.764;2022-09-12T00:10:57;9.95;;;6.05;;
44197;SDS011;30157;55.512;37.764;2022-09-12T00:13:30;10.40;;;6.13;;
44197;SDS011;30157;55.512;37.764;2022-09-12T00:15:55;10.38;;;6.35;;
44197;SDS011;30157;55.512;37.764;2022-09-12T00:18:21;10.57;;;5.90;;
44197;SDS011;30157;55.512;37.764;2022-09-12T00:20:47;9.80;;;5.82;;
44197;SDS011;30157;55.512;37.764;2022-09-12T00:23:13;10.57;;;5.85;;
44197;SDS011;30157;55.512;37.764;2022-09-12T00:25:45;10.90;;;6.32;;
44197;SDS011;30157;55.512;37.764;2022-09-12T00:28:13;10.85;;;6.35;;
44197;SDS011;30157;55.512;37.764;2022-09-12T00:30:44;11.70;;;6.43;;
44197;SDS011;30157;55.512;37.764;2022-09-12T00:33:12;11.38;;;6.72;;
44197;SDS011;30157;55.512;37.764;2022-09-12T00:35:40;9.73;;;5.97;;
44197;SDS011;30157;55.512;37.764;2022-09-12T00:38:13;10.93;;;6.60;;
44197;SDS011;30157;55.512;37.764;2022-09-12T00:40:40;10.15;;;6.32;;
44197;SDS011;30157;55.512;37.764;2022-09-12T00:43:09;12.18;;;7.18;;
44197;SDS011;30157;55.512;37.764;2022-09-12T00:45:38;11.07;;;6.60;;
44197;SDS011;30157;55.512;37.764;2022-09-12T00:48:05;10.77;;;6.63;;
44197;SDS011;30157;55.512;37.764;2022-09-12T00:50:30;8.43;;;6.13;;
44197;SDS011;30157;55.512;37.764;2022-09-12T00:52:59;9.60;;;6.13;;
44197;SDS011;30157;55.512;37.764;2022-09-12T00:55:34;10.75;;;6.22;;
44197;SDS011;30157;55.512;37.764;2022-09-12T00:58:07;11.65;;;6.82;;
44197;SDS011;30157;55.512;37.764;2022-09-12T01:00:38;13.15;;;6.45;;
44197;SDS011;30157;55.512;37.764;2022-09-12T01:03:12;9.68;;;6.32;;
44197;SDS011;30157;55.512;37.764;2022-09-12T01:05:41;8.70;;;4.75;;
44197;SDS011;30157;55.512;37.764;2022-09-12T01:08:11;9.25;;;6.38;;
44197;SDS011;30157;55.512;37.764;2022-09-12T01:10:39;9.80;;;6.40;;
44197;SDS011;30157;55.512;37.764;2022-09-12T01:13:07;9.18;;;5.82;;
44197;SDS011;30157;55.512;37.764;2022-09-12T01:15:35;10.13;;;6.57;;
44197;SDS011;30157;55.512;37.764;2022-09-12T01:23:47;9.75;;;6.45;;
44197;SDS011;30157;55.512;37.764;2022-09-12T01:29:59;9.65;;;6.75;;
44197;SDS011;30157;55.512;37.764;2022-09-12T01:35:44;8.98;;;6.13;;
44197;SDS011;30157;55.512;37.764;2022-09-12T01:38:48;9.77;;;6.82;;
44197;SDS011;30157;55.512;37.764;2022-09-12T01:41:25;11.45;;;6.82;;
44197;SDS011;30157;55.512;37.764;2022-09-12T01:44:45;8.50;;;6.10;;
44197;SDS011;30157;55.512;37.764;2022-09-12T01:47:01;11.38;;;6.97;;
44197;SDS011;30157;55.512;37.764;2022-09-12T01:55:23;12.10;;;7.43;;
44197;SDS011;30157;55.512;37.764;2022-09-12T01:57:56;10.57;;;6.55;;
44197;SDS011;30157;55.512;37.764;2022-09-12T02:00:23;11.10;;;7.00;;
44197;SDS011;30157;55.512;37.764;2022-09-12T02:05:27;11.85;;;7.38;;
44197;SDS011;30157;55.512;37.764;2022-09-12T02:08:06;11.82;;;7.43;;
44197;SDS011;30157;55.512;37.764;2022-09-12T02:10:40;9.98;;;7.10;;
44197;SDS011;30157;55.512;37.764;2022-09-12T02:13:12;10.68;;;7.13;;
44197;SDS011;30157;55.512;37.764;2022-09-12T02:15:43;10.75;;;6.57;;
44197;SDS011;30157;55.512;37.764;2022-09-12T02:18:14;10.15;;;6.97;;
44197;SDS011;30157;55.512;37.764;2022-09-12T02:20:43;9.32;;;6.18;;
44197;SDS011;30157;55.512;37.764;2022-09-12T02:23:12;9.25;;;6.28;;
44197;SDS011;30157;55.512;37.764;2022-09-12T02:25:45;10.93;;;6.63;;
44197;SDS011;30157;55.512;37.764;2022-09-12T02:28:19;11.55;;;7.00;;
44197;SDS011;30157;55.512;37.764;2022-09-12T02:30:58;9.60;;;6.72;;
44197;SDS011;30157;55.512;37.764;2022-09-12T02:36:24;12.10;;;6.70;;
44197;SDS011;30157;55.512;37.764;2022-09-12T02:38:51;11.70;;;6.65;;
44197;SDS011;30157;55.512;37.764;2022-09-12T02:41:18;11.55;;;7.22;;
44197;SDS011;30157;55.512;37.764;2022-09-12T02:43:46;10.88;;;7.18;;
44197;SDS011;30157;55.512;37.764;2022-09-12T02:46:15;11.05;;;6.60;;
44197;SDS011;30157;55.512;37.764;2022-09-12T02:48:45;9.77;;;6.63;;
44197;SDS011;30157;55.512;37.764;2022-09-12T02:51:11;9.27;;;6.80;;
44197;SDS011;30157;55.512;37.764;2022-09-12T02:53:37;12.15;;;7.25;;
44197;SDS011;30157;55.512;37.764;2022-09-12T02:56:07;10.15;;;6.90;;
44197;SDS011;30157;55.512;37.764;2022-09-12T02:58:38;10.82;;;7.60;;
44197;SDS011;30157;55.512;37.764;2022-09-12T03:14:52;10.60;;;7.00;;
44197;SDS011;30157;55.512;37.764;2022-09-12T03:17:55;10.77;;;6.90;;
44197;SDS011;30157;55.512;37.764;2022-09-12T03:20:29;10.88;;;6.70;;
44197;SDS011;30157;55.512;37.764;2022-09-12T03:25:48;9.80;;;7.50;;
44197;SDS011;30157;55.512;37.764;2022-09-12T03:28:19;12.75;;;7.07;;
44197;SDS011;30157;55.512;37.764;2022-09-12T03:30:47;11.30;;;7.75;;
44197;SDS011;30157;55.512;37.764;2022-09-12T03:33:16;10.50;;;6.60;;
44197;SDS011;30157;55.512;37.764;2022-09-12T03:35:44;11.45;;;7.57;;
44197;SDS011;30157;55.512;37.764;2022-09-12T03:38:11;10.38;;;7.35;;
44197;SDS011;30157;55.512;37.764;2022-09-12T03:40:37;10.75;;;7.20;;
44197;SDS011;30157;55.512;37.764;2022-09-12T03:43:04;13.48;;;7.40;;
44197;SDS011;30157;55.512;37.764;2022-09-12T03:45:31;16.42;;;8.38;;
44197;SDS011;30157;55.512;37.764;2022-09-12T03:47:57;13.25;;;7.97;;
44197;SDS011;30157;55.512;37.764;2022-09-12T03:50:23;9.90;;;6.32;;
44197;SDS011;30157;55.512;37.764;2022-09-12T03:52:48;11.98;;;7.55;;
44197;SDS011;30157;55.512;37.764;2022-09-12T03:55:14;11.52;;;7.72;;
44197;SDS011;30157;55.512;37.764;2022-09-12T03:57:40;11.48;;;7.80;;
44197;SDS011;30157;55.512;37.764;2022-09-12T04:00:06;12.27;;;7.75;;
44197;SDS011;30157;55.512;37.764;2022-09-12T04:02:38;12.18;;;7.60;;
44197;SDS011;30157;55.512;37.764;2022-09-12T04:05:04;12.07;;;7.72;;
44197;SDS011;30157;55.512;37.764;2022-09-12T04:07:30;13.23;;;7.45;;
44197;SDS011;30157;55.512;37.764;2022-09-12T04:09:55;12.15;;;8.23;;
44197;SDS011;30157;55.512;37.764;2022-09-12T04:12:21;10.57;;;7.15;;
44197;SDS011;30157;55.512;37.764;2022-09-12T04:14:47;11.63;;;8.00;;
44197;SDS011;30157;55.512;37.764;2022-09-12T04:17:13;12.80;;;8.23;;
44197;SDS011;30157;55.512;37.764;2022-09-12T04:19:39;13.68;;;8.32;;
44197;SDS011;30157;55.512;37.764;2022-09-12T04:22:05;15.38;;;7.85;;
44197;SDS011;30157;55.512;37.764;2022-09-12T04:24:30;13.43;;;7.82;;
44197;SDS011;30157;55.512;37.764;2022-09-12T04:26:56;11.00;;;7.53;;
44197;SDS011;30157;55.512;37.764;2022-09-12T04:29:22;13.23;;;8.45;;
44197;SDS011;30157;55.512;37.764;2022-09-12T04:31:48;13.68;;;7.55;;
44197;SDS011;30157;55.512;37.764;2022-09-12T04:34:14;13.88;;;8.00;;
44197;SDS011;30157;55.512;37.764;2022-09-12T04:36:40;10.10;;;6.88;;
44197;SDS011;30157;55.512;37.764;2022-09-12T04:39:06;11.98;;;7.63;;
44197;SDS011;30157;55.512;37.764;2022-09-12T04:41:33;10.20;;;6.88;;
44197;SDS011;30157;55.512;37.764;2022-09-12T04:44:02;11.43;;;7.78;;
44197;SDS011;30157;55.512;37.764;2022-09-12T04:46:31;10.95;;;7.25;;
44197;SDS011;30157;55.512;37.764;2022-09-12T04:48:58;12.98;;;7.88;;
44197;SDS011;30157;55.512;37.764;2022-09-12T04:51:31;12.75;;;7.70;;
44197;SDS011;30157;55.512;37.764;2022-09-12T04:54:02;9.70;;;6.85;;
44197;SDS011;30157;55.512;37.764;2022-09-12T04:56:30;12.43;;;7.57;;
44197;SDS011;30157;55.512;37.764;2022-09-12T04:58:57;12.85;;;7.63;;
44197;SDS011;30157;55.512;37.764;2022-09-12T05:01:25;9.45;;;7.05;;
44197;SDS011;30157;55.512;37.764;2022-09-12T05:03:52;10.25;;;7.15;;
44197;SDS011;30157;55.512;37.764;2022-09-12T05:06:19;11.95;;;7.63;;
44197;SDS011;30157;55.512;37.764;2022-09-12T05:08:47;10.15;;;6.57;;
44197;SDS011;30157;55.512;37.764;2022-09-12T05:11:13;10.05;;;6.88;;
44197;SDS011;30157;55.512;37.764;2022-09-12T05:13:43;11.77;;;6.60;;
44197;SDS011;30157;55.512;37.764;2022-09-12T05:16:10;12.18;;;7.18;;
44197;SDS011;30157;55.512;37.764;2022-09-12T05:18:36;12.98;;;7.82;;
44197;SDS011;30157;55.512;37.764;2022-09-12T05:21:04;10.50;;;6.63;;
44197;SDS011;30157;55.512;37.764;2022-09-12T05:23:33;10.98;;;7.25;;
44197;SDS011;30157;55.512;37.764;2022-09-12T05:26:05;9.65;;;7.18;;
44197;SDS011;30157;55.512;37.764;2022-09-12T05:28:35;10.60;;;6.32;;
44197;SDS011;30157;55.512;37.764;2022-09-12T05:31:04;10.90;;;7.57;;
44197;SDS011;30157;55.512;37.764;2022-09-12T05:33:34;8.35;;;5.88;;
44197;SDS011;30157;55.512;37.764;2022-09-12T05:36:01;10.75;;;7.53;;
44197;SDS011;30157;55.512;37.764;2022-09-12T05:38:29;13.27;;;7.50;;
44197;SDS011;30157;55.512;37.764;2022-09-12T05:41:05;12.57;;;7.30;;
44197;SDS011;30157;55.512;37.764;2022-09-12T05:43:34;10.45;;;7.07;;
44197;SDS011;30157;55.512;37.764;2022-09-12T05:46:05;11.65;;;7.53;;
44197;SDS011;30157;55.512;37.764;2022-09-12T05:48:37;11.68;;;6.90;;
44197;SDS011;30157;55.512;37.764;2022-09-12T05:51:08;11.32;;;7.40;;
44197;SDS011;30157;55.512;37.764;2022-09-12T05:53:48;10.98;;;7.20;;
44197;SDS011;30157;55.512;37.764;2022-09-12T05:56:17;14.13;;;7.75;;
44197;SDS011;30157;55.512;37.764;2022-09-12T05:58:45;9.65;;;6.90;;
44197;SDS011;30157;55.512;37.764;2022-09-12T06:01:18;12.27;;;7.65;;
44197;SDS011;30157;55.512;37.764;2022-09-12T06:03:46;12.07;;;7.80;;
44197;SDS011;30157;55.512;37.764;2022-09-12T06:06:17;11.20;;;7.60;;
44197;SDS011;30157;55.512;37.764;2022-09-12T06:08:55;11.20;;;7.68;;
44197;SDS011;30157;55.512;37.764;2022-09-12T06:11:23;10.38;;;7.38;;
44197;SDS011;30157;55.512;37.764;2022-09-12T06:13:53;11.30;;;7.93;;
44197;SDS011;30157;55.512;37.764;2022-09-12T06:16:21;10.80;;;7.82;;
44197;SDS011;30157;55.512;37.764;2022-09-12T06:18:56;9.75;;;7.53;;
44197;SDS011;30157;55.512;37.764;2022-09-12T06:21:23;12.77;;;8.02;;
44197;SDS011;30157;55.512;37.764;2022-09-12T06:23:52;10.68;;;8.32;;
44197;SDS011;30157;55.512;37.764;2022-09-12T06:26:19;12.30;;;8.43;;
44197;SDS011;30157;55.512;37.764;2022-09-12T06:28:47;12.65;;;8.27;;
44197;SDS011;30157;55.512;37.764;2022-09-12T06:31:15;11.10;;;7.70;;
44197;SDS011;30157;55.512;37.764;2022-09-12T06:33:44;12.02;;;8.70;;
44197;SDS011;30157;55.512;37.764;2022-09-12T06:36:16;9.55;;;7.60;;
44197;SDS011;30157;55.512;37.764;2022-09-12T06:38:43;12.82;;;7.90;;
44197;SDS011;30157;55.512;37.764;2022-09-12T06:41:15;11.75;;;7.43;;
44197;SDS011;30157;55.512;37.764;2022-09-12T06:43:41;9.90;;;7.40;;
44197;SDS011;30157;55.512;37.764;2022-09-12T06:46:07;12.23;;;6.75;;
44197;SDS011;30157;55.512;37.764;2022-09-12T06:48:34;8.82;;;6.32;;
44197;SDS011;30157;55.512;37.764;2022-09-12T06:51:01;9.60;;;5.88;;
44197;SDS011;30157;55.512;37.764;2022-09-12T06:53:29;7.70;;;5.45;;
44197;SDS011;30157;55.512;37.764;2022-09-12T06:56:02;9.43;;;5.95;;
44197;SDS011;30157;55.512;37.764;2022-09-12T06:58:33;9.90;;;6.20;;
44197;SDS011;30157;55.512;37.764;2022-09-12T07:01:00;10.48;;;6.53;;
44197;SDS011;30157;55.512;37.764;2022-09-12T07:03:34;8.65;;;5.88;;
44197;SDS011;30157;55.512;37.764;2022-09-12T07:06:09;12.50;;;6.30;;
44197;SDS011;30157;55.512;37.764;2022-09-12T07:08:38;8.40;;;5.68;;
44197;SDS011;30157;55.512;37.764;2022-09-12T07:11:09;8.93;;;5.85;;
44197;SDS011;30157;55.512;37.764;2022-09-12T07:13:41;8.65;;;5.47;;
44197;SDS011;30157;55.512;37.764;2022-09-12T07:16:08;8.90;;;6.35;;
44197;SDS011;30157;55.512;37.764;2022-09-12T07:18:35;9.25;;;5.60;;
44197;SDS011;30157;55.512;37.764;2022-09-12T07:21:05;9.75;;;5.45;;
44197;SDS011;30157;55.512;37.764;2022-09-12T07:23:32;7.65;;;5.72;;
44197;SDS011;30157;55.512;37.764;2022-09-12T07:25:59;7.72;;;5.57;;
44197;SDS011;30157;55.512;37.764;2022-09-12T07:28:34;7.85;;;5.00;;
44197;SDS011;30157;55.512;37.764;2022-09-12T07:33:37;6.88;;;4.70;;
44197;SDS011;30157;55.512;37.764;2022-09-12T07:36:07;7.30;;;5.00;;
44197;SDS011;30157;55.512;37.764;2022-09-12T07:38:36;7.38;;;5.15;;
44197;SDS011;30157;55.512;37.764;2022-09-12T07:41:09;8.02;;;5.55;;
44197;SDS011;30157;55.512;37.764;2022-09-12T07:43:50;7.20;;;4.20;;
44197;SDS011;30157;55.512;37.764;2022-09-12T07:46:21;7.53;;;5.53;;
44197;SDS011;30157;55.512;37.764;2022-09-12T07:48:51;9.15;;;5.63;;
44197;SDS011;30157;55.512;37.764;2022-09-12T07:51:17;10.15;;;5.75;;
44197;SDS011;30157;55.512;37.764;2022-09-12T07:53:46;9.65;;;6.20;;
44197;SDS011;30157;55.512;37.764;2022-09-12T07:56:13;8.82;;;5.50;;
44197;SDS011;30157;55.512;37.764;2022-09-12T07:58:40;11.25;;;6.68;;
44197;SDS011;30157;55.512;37.764;2022-09-12T08:01:11;10.60;;;6.70;;
44197;SDS011;30157;55.512;37.764;2022-09-12T08:03:39;9.77;;;6.30;;
44197;SDS011;30157;55.512;37.764;2022-09-12T08:06:07;10.25;;;6.65;;
44197;SDS011;30157;55.512;37.764;2022-09-12T08:08:37;11.98;;;7.05;;
44197;SDS011;30157;55.512;37.764;2022-09-12T08:11:04;10.02;;;6.68;;
44197;SDS011;30157;55.512;37.764;2022-09-12T08:13:32;11.68;;;7.95;;
44197;SDS011;30157;55.512;37.764;2022-09-12T08:16:03;10.35;;;6.75;;
44197;SDS011;30157;55.512;37.764;2022-09-12T08:18:31;9.68;;;7.15;;
44197;SDS011;30157;55.512;37.764;2022-09-12T08:23:23;10.70;;;7.38;;
44197;SDS011;30157;55.512;37.764;2022-09-12T08:25:50;9.43;;;6.88;;
44197;SDS011;30157;55.512;37.764;2022-09-12T08:28:21;12.38;;;7.60;;
44197;SDS011;30157;55.512;37.764;2022-09-12T08:30:48;11.10;;;7.13;;
44197;SDS011;30157;55.512;37.764;2022-09-12T08:33:14;11.40;;;7.70;;
44197;SDS011;30157;55.512;37.764;2022-09-12T08:35:40;10.48;;;7.82;;
44197;SDS011;30157;55.512;37.764;2022-09-12T08:38:08;13.88;;;8.65;;
44197;SDS011;30157;55.512;37.764;2022-09-12T08:40:40;10.77;;;7.55;;
44197;SDS011;30157;55.512;37.764;2022-09-12T08:43:21;11.50;;;7.63;;
44197;SDS011;30157;55.512;37.764;2022-09-12T08:46:11;14.70;;;8.43;;
44197;SDS011;30157;55.512;37.764;2022-09-12T08:48:44;11.32;;;7.57;;
44197;SDS011;30157;55.512;37.764;2022-09-12T08:51:11;13.32;;;8.60;;
44197;SDS011;30157;55.512;37.764;2022-09-12T08:53:39;13.73;;;8.68;;
44197;SDS011;30157;55.512;37.764;2022-09-12T08:56:07;14.13;;;9.13;;
44197;SDS011;30157;55.512;37.764;2022-09-12T08:58:39;15.27;;;10.48;;
44197;SDS011;30157;55.512;37.764;2022-09-12T09:01:09;16.33;;;10.48;;
44197;SDS011;30157;55.512;37.764;2022-09-12T09:11:20;16.90;;;9.93;;
44197;SDS011;30157;55.512;37.764;2022-09-12T09:16:42;20.92;;;13.23;;
44197;SDS011;30157;55.512;37.764;2022-09-12T09:19:20;19.98;;;11.35;;
44197;SDS011;30157;55.512;37.764;2022-09-12T09:24:44;19.13;;;11.68;;
44197;SDS011;30157;55.512;37.764;2022-09-12T09:29:45;19.98;;;10.93;;
44197;SDS011;30157;55.512;37.764;2022-09-12T09:32:17;18.77;;;10.82;;
44197;SDS011;30157;55.512;37.764;2022-09-12T09:34:49;21.27;;;11.90;;
44197;SDS011;30157;55.512;37.764;2022-09-12T09:44:47;18.85;;;12.15;;
44197;SDS011;30157;55.512;37.764;2022-09-12T09:47:13;21.40;;;12.73;;
44197;SDS011;30157;55.512;37.764;2022-09-12T09:49:41;20.92;;;13.05;;
44197;SDS011;30157;55.512;37.764;2022-09-12T09:52:07;22.63;;;12.60;;
44197;SDS011;30157;55.512;37.764;2022-09-12T09:54:43;23.40;;;13.00;;
44197;SDS011;30157;55.512;37.764;2022-09-12T10:00:21;20.63;;;11.18;;
44197;SDS011;30157;55.512;37.764;2022-09-12T10:08:25;20.95;;;12.88;;
44197;SDS011;30157;55.512;37.764;2022-09-12T10:10:51;21.63;;;13.65;;
44197;SDS011;30157;55.512;37.764;2022-09-12T10:13:26;23.83;;;13.85;;
44197;SDS011;30157;55.512;37.764;2022-09-12T10:15:58;25.25;;;14.15;;
44197;SDS011;30157;55.512;37.764;2022-09-12T10:18:39;24.77;;;13.98;;
44197;SDS011;30157;55.512;37.764;2022-09-12T10:21:14;25.08;;;14.93;;
44197;SDS011;30157;55.512;37.764;2022-09-12T10:23:46;25.33;;;14.70;;
44197;SDS011;30157;55.512;37.764;2022-09-12T10:26:18;22.83;;;13.52;;
44197;SDS011;30157;55.512;37.764;2022-09-12T10:28:46;25.80;;;13.27;;
44197;SDS011;30157;55.512;37.764;2022-09-12T10:31:22;23.00;;;13.65;;
44197;SDS011;30157;55.512;37.764;2022-09-12T10:33:56;22.90;;;13.60;;
44197;SDS011;30157;55.512;37.764;2022-09-12T10:36:27;20.20;;;13.30;;
44197;SDS011;30157;55.512;37.764;2022-09-12T10:39:00;22.83;;;14.48;;
44197;SDS011;30157;55.512;37.764;2022-09-12T10:41:38;27.85;;;14.25;;
44197;SDS011;30157;55.512;37.764;2022-09-12T10:44:06;24.45;;;14.65;;
44197;SDS011;30157;55.512;37.764;2022-09-12T10:46:38;25.52;;;15.00;;
44197;SDS011;30157;55.512;37.764;2022-09-12T10:49:24;30.23;;;15.75;;
44197;SDS011;30157;55.512;37.764;2022-09-12T10:51:56;24.27;;;13.93;;
44197;SDS011;30157;55.512;37.764;2022-09-12T10:54:40;25.48;;;14.40;;
44197;SDS011;30157;55.512;37.764;2022-09-12T11:03:12;23.40;;;13.10;;
44197;SDS011;30157;55.512;37.764;2022-09-12T11:13:50;21.85;;;13.50;;
44197;SDS011;30157;55.512;37.764;2022-09-12T11:16:39;26.05;;;14.38;;
44197;SDS011;30157;55.512;37.764;2022-09-12T11:40:39;27.83;;;14.48;;
44197;SDS011;30157;55.512;37.764;2022-09-12T11:45:50;26.92;;;15.85;;
44197;SDS011;30157;55.512;37.764;2022-09-12T11:51:15;29.02;;;15.85;;
44197;SDS011;30157;55.512;37.764;2022-09-12T11:56:39;29.20;;;15.82;;
44197;SDS011;30157;55.512;37.764;2022-09-12T11:59:28;27.95;;;16.15;;
44197;SDS011;30157;55.512;37.764;2022-09-12T12:01:56;26.58;;;14.27;;
44197;SDS011;30157;55.512;37.764;2022-09-12T12:04:29;26.63;;;15.75;;
44197;SDS011;30157;55.512;37.764;2022-09-12T12:07:03;25.77;;;14.75;;
44197;SDS011;30157;55.512;37.764;2022-09-12T12:09:32;29.25;;;15.93;;
44197;SDS011;30157;55.512;37.764;2022-09-12T12:11:59;31.60;;;15.70;;
44197;SDS011;30157;55.512;37.764;2022-09-12T12:15:03;26.35;;;14.60;;
44197;SDS011;30157;55.512;37.764;2022-09-12T12:17:23;26.60;;;16.05;;
44197;SDS011;30157;55.512;37.764;2022-09-12T12:20:01;26.00;;;14.45;;
44197;SDS011;30157;55.512;37.764;2022-09-12T12:22:29;23.25;;;14.80;;
44197;SDS011;30157;55.512;37.764;2022-09-12T12:25:36;25.23;;;13.50;;
44197;SDS011;30157;55.512;37.764;2022-09-12T12:27:57;25.23;;;14.63;;
44197;SDS011;30157;55.512;37.764;2022-09-12T12:33:01;24.58;;;13.63;;
44197;SDS011;30157;55.512;37.764;2022-09-12T12:38:31;22.45;;;12.68;;
44197;SDS011;30157;55.512;37.764;2022-09-12T12:43:42;25.52;;;13.82;;
44197;SDS011;30157;55.512;37.764;2022-09-12T12:46:14;24.58;;;13.68;;
44197;SDS011;30157;55.512;37.764;2022-09-12T12:48:46;25.42;;;13.43;;
44197;SDS011;30157;55.512;37.764;2022-09-12T12:53:48;22.48;;;12.90;;
44197;SDS011;30157;55.512;37.764;2022-09-12T12:56:26;22.33;;;13.10;;
44197;SDS011;30157;55.512;37.764;2022-09-12T12:59:02;20.35;;;11.68;;
44197;SDS011;30157;55.512;37.764;2022-09-12T13:01:36;18.35;;;10.90;;
44197;SDS011;30157;55.512;37.764;2022-09-12T13:04:14;19.83;;;11.30;;
44197;SDS011;30157;55.512;37.764;2022-09-12T13:06:43;20.17;;;12.52;;
44197;SDS011;30157;55.512;37.764;2022-09-12T13:10:02;20.48;;;10.85;;
44197;SDS011;30157;55.512;37.764;2022-09-12T13:12:11;19.08;;;11.13;;
44197;SDS011;30157;55.512;37.764;2022-09-12T13:22:54;15.50;;;10.02;;
44197;SDS011;30157;55.512;37.764;2022-09-12T13:27:55;18.60;;;10.10;;
44197;SDS011;30157;55.512;37.764;2022-09-12T13:33:00;13.13;;;8.73;;
44197;SDS011;30157;55.512;37.764;2022-09-12T13:35:52;15.40;;;9.23;;
44197;SDS011;30157;55.512;37.764;2022-09-12T13:44:03;16.58;;;9.35;;
44197;SDS011;30157;55.512;37.764;2022-09-12T13:46:34;16.13;;;9.27;;
44197;SDS011;30157;55.512;37.764;2022-09-12T13:49:00;13.80;;;8.65;;
44197;SDS011;30157;55.512;37.764;2022-09-12T13:51:35;16.88;;;9.40;;
44197;SDS011;30157;55.512;37.764;2022-09-12T13:54:02;14.18;;;8.98;;
44197;SDS011;30157;55.512;37.764;2022-09-12T13:56:30;14.73;;;8.30;;
44197;SDS011;30157;55.512;37.764;2022-09-12T13:58:59;14.65;;;8.52;;
44197;SDS011;30157;55.512;37.764;2022-09-12T14:01:37;14.57;;;8.50;;
44197;SDS011;30157;55.512;37.764;2022-09-12T14:07:16;12.50;;;8.02;;
44197;SDS011;30157;55.512;37.764;2022-09-12T14:09:45;12.15;;;7.15;;
44197;SDS011;30157;55.512;37.764;2022-09-12T14:14:53;15.30;;;7.57;;
44197;SDS011;30157;55.512;37.764;2022-09-12T14:17:23;11.85;;;7.25;;
44197;SDS011;30157;55.512;37.764;2022-09-12T14:19:54;13.13;;;8.40;;
44197;SDS011;30157;55.512;37.764;2022-09-12T14:22:23;9.52;;;6.30;;
44197;SDS011;30157;55.512;37.764;2022-09-12T14:24:54;11.57;;;6.60;;
44197;SDS011;30157;55.512;37.764;2022-09-12T14:27:25;11.13;;;6.30;;
44197;SDS011;30157;55.512;37.764;2022-09-12T14:30:05;9.73;;;7.13;;
44197;SDS011;30157;55.512;37.764;2022-09-12T14:33:00;9.77;;;6.07;;
44197;SDS011;30157;55.512;37.764;2022-09-12T14:35:28;12.10;;;6.32;;
44197;SDS011;30157;55.512;37.764;2022-09-12T14:37:54;10.13;;;5.85;;
44197;SDS011;30157;55.512;37.764;2022-09-12T14:40:21;7.97;;;5.20;;
44197;SDS011;30157;55.512;37.764;2022-09-12T14:42:48;10.75;;;5.93;;
44197;SDS011;30157;55.512;37.764;2022-09-12T14:45:22;11.00;;;5.50;;
44197;SDS011;30157;55.512;37.764;2022-09-12T14:47:51;12.63;;;5.53;;
44197;SDS011;30157;55.512;37.764;2022-09-12T14:50:22;8.65;;;5.22;;
44197;SDS011;30157;55.512;37.764;2022-09-12T14:53:06;8.90;;;5.28;;
44197;SDS011;30157;55.512;37.764;2022-09-12T14:55:51;9.30;;;5.18;;
44197;SDS011;30157;55.512;37.764;2022-09-12T14:58:38;8.23;;;4.93;;
44197;SDS011;30157;55.512;37.764;2022-09-12T15:03:32;8.20;;;4.78;;
44197;SDS011;30157;55.512;37.764;2022-09-12T15:06:00;7.28;;;4.90;;
44197;SDS011;30157;55.512;37.764;2022-09-12T15:08:32;9.05;;;5.60;;
44197;SDS011;30157;55.512;37.764;2022-09-12T15:10:57;8.35;;;5.10;;
44197;SDS011;30157;55.512;37.764;2022-09-12T15:13:25;7.13;;;4.90;;
44197;SDS011;30157;55.512;37.764;2022-09-12T15:15:55;10.15;;;5.20;;
44197;SDS011;30157;55.512;37.764;2022-09-12T15:18:23;8.18;;;4.55;;
44197;SDS011;30157;55.512;37.764;2022-09-12T15:20:52;8.88;;;4.75;;
44197;SDS011;30157;55.512;37.764;2022-09-12T15:25:55;7.65;;;4.40;;
44197;SDS011;30157;55.512;37.764;2022-09-12T15:28:24;5.57;;;3.97;;
44197;SDS011;30157;55.512;37.764;2022-09-12T15:30:51;6.47;;;4.47;;
44197;SDS011;30157;55.512;37.764;2022-09-12T15:33:20;7.45;;;4.22;;
44197;SDS011;30157;55.512;37.764;2022-09-12T15:35:48;5.95;;;4.10;;
44197;SDS011;30157;55.512;37.764;2022-09-12T15:38:14;4.20;;;3.30;;
44197;SDS011;30157;55.512;37.764;2022-09-12T15:40:41;5.70;;;4.20;;
44197;SDS011;30157;55.512;37.764;2022-09-12T15:43:08;5.35;;;3.90;;
44197;SDS011;30157;55.512;37.764;2022-09-12T15:45:36;7.20;;;4.22;;
44197;SDS011;30157;55.512;37.764;2022-09-12T15:48:02;5.68;;;4.15;;
44197;SDS011;30157;55.512;37.764;2022-09-12T15:50:27;6.65;;;4.10;;
44197;SDS011;30157;55.512;37.764;2022-09-12T15:52:54;5.95;;;3.95;;
44197;SDS011;30157;55.512;37.764;2022-09-12T15:55:22;7.22;;;3.88;;
44197;SDS011;30157;55.512;37.764;2022-09-12T15:57:59;7.28;;;3.80;;
44197;SDS011;30157;55.512;37.764;2022-09-12T16:00:27;7.90;;;4.40;;
44197;SDS011;30157;55.512;37.764;2022-09-12T16:02:53;5.22;;;3.80;;
44197;SDS011;30157;55.512;37.764;2022-09-12T16:05:20;5.50;;;3.63;;
44197;SDS011;30157;55.512;37.764;2022-09-12T16:07:52;7.85;;;3.40;;
44197;SDS011;30157;55.512;37.764;2022-09-12T16:10:22;6.68;;;3.88;;
44197;SDS011;30157;55.512;37.764;2022-09-12T16:12:50;4.75;;;3.58;;
44197;SDS011;30157;55.512;37.764;2022-09-12T16:15:17;5.55;;;3.78;;
44197;SDS011;30157;55.512;37.764;2022-09-12T16:17:45;6.22;;;3.78;;
44197;SDS011;30157;55.512;37.764;2022-09-12T16:20:10;4.88;;;3.67;;
44197;SDS011;30157;55.512;37.764;2022-09-12T16:22:37;7.60;;;3.60;;
44197;SDS011;30157;55.512;37.764;2022-09-12T16:25:03;5.53;;;3.42;;
44197;SDS011;30157;55.512;37.764;2022-09-12T16:27:30;5.47;;;3.67;;
44197;SDS011;30157;55.512;37.764;2022-09-12T16:29:57;6.22;;;3.58;;
44197;SDS011;30157;55.512;37.764;2022-09-12T16:32:22;6.45;;;3.42;;
44197;SDS011;30157;55.512;37.764;2022-09-12T16:34:48;7.20;;;4.28;;
44197;SDS011;30157;55.512;37.764;2022-09-12T16:37:15;4.47;;;3.45;;
44197;SDS011;30157;55.512;37.764;2022-09-12T16:39:41;5.30;;;3.70;;
44197;SDS011;30157;55.512;37.764;2022-09-12T16:42:07;6.72;;;3.95;;
44197;SDS011;30157;55.512;37.764;2022-09-12T16:44:32;6.32;;;3.90;;
44197;SDS011;30157;55.512;37.764;2022-09-12T16:46:58;5.22;;;3.70;;
44197;SDS011;30157;55.512;37.764;2022-09-12T16:49:24;5.13;;;3.80;;
44197;SDS011;30157;55.512;37.764;2022-09-12T16:51:49;4.75;;;3.35;;
44197;SDS011;30157;55.512;37.764;2022-09-12T16:54:15;4.22;;;3.40;;
44197;SDS011;30157;55.512;37.764;2022-09-12T16:56:42;4.40;;;3.20;;
44197;SDS011;30157;55.512;37.764;2022-09-12T16:59:08;5.07;;;3.50;;
44197;SDS011;30157;55.512;37.764;2022-09-12T17:01:36;7.40;;;3.55;;
44197;SDS011;30157;55.512;37.764;2022-09-12T17:04:02;5.80;;;3.40;;
44197;SDS011;30157;55.512;37.764;2022-09-12T17:06:28;5.15;;;3.72;;
44197;SDS011;30157;55.512;37.764;2022-09-12T17:08:56;5.60;;;4.00;;
44197;SDS011;30157;55.512;37.764;2022-09-12T17:11:29;5.60;;;3.50;;
44197;SDS011;30157;55.512;37.764;2022-09-12T17:14:01;7.18;;;3.45;;
44197;SDS011;30157;55.512;37.764;2022-09-12T17:16:30;5.78;;;3.40;;
44197;SDS011;30157;55.512;37.764;2022-09-12T17:18:58;5.95;;;3.30;;
44197;SDS011;30157;55.512;37.764;2022-09-12T17:21:24;5.20;;;3.28;;
44197;SDS011;30157;55.512;37.764;2022-09-12T17:23:52;6.40;;;3.78;;
44197;SDS011;30157;55.512;37.764;2022-09-12T17:26:20;5.20;;;3.45;;